sensor_id;sensor_type;location;lat;lon;timestamp;P1;durP1;ratioP1;P2;durP2;ratioP2
75993;SDS011;64680;53.800;9.988;2023-02-28T00:00:11;11.82;;;5.65;;
75993;SDS011;64680;53.800;9.988;2023-02-28T00:02:42;7.38;;;4.05;;
75993;SDS011;64680;53.800;9.988;2023-02-28T00:05:10;9.88;;;5.22;;
75993;SDS011;64680;53.800;9.988;2023-02-28T00:07:37;9.25;;;4.65;;
75993;SDS011;64680;53.800;9.988;2023-02-28T00:10:04;9.23;;;5.25;;
75993;SDS011;64680;53.800;9.988;2023-02-28T00:12:32;10.10;;;4.22;;
75993;SDS011;64680;53.800;9.988;2023-02-28T00:14:58;8.68;;;4.28;;
75993;SDS011;64680;53.800;9.988;2023-02-28T00:17:23;8.73;;;5.13;;
75993;SDS011;64680;53.800;9.988;2023-02-28T00:19:50;6.78;;;4.80;;
75993;SDS011;64680;53.800;9.988;2023-02-28T00:22:16;7.50;;;4.30;;
75993;SDS011;64680;53.800;9.988;2023-02-28T00:24:43;8.68;;;3.50;;
75993;SDS011;64680;53.800;9.988;2023-02-28T00:27:09;8.88;;;4.10;;
75993;SDS011;64680;53.800;9.988;2023-02-28T00:29:35;6.38;;;4.20;;
75993;SDS011;64680;53.800;9.988;2023-02-28T00:32:01;9.45;;;4.38;;
75993;SDS011;64680;53.800;9.988;2023-02-28T00:34:27;7.55;;;3.78;;
75993;SDS011;64680;53.800;9.988;2023-02-28T00:36:53;7.10;;;3.95;;
75993;SDS011;64680;53.800;9.988;2023-02-28T00:39:19;8.30;;;4.00;;
75993;SDS011;64680;53.800;9.988;2023-02-28T00:41:45;7.32;;;4.07;;
75993;SDS011;64680;53.800;9.988;2023-02-28T00:44:10;6.10;;;3.88;;
75993;SDS011;64680;53.800;9.988;2023-02-28T00:46:36;7.47;;;3.55;;
75993;SDS011;64680;53.800;9.988;2023-02-28T00:49:02;7.10;;;3.70;;
75993;SDS011;64680;53.800;9.988;2023-02-28T00:51:27;7.85;;;4.30;;
75993;SDS011;64680;53.800;9.988;2023-02-28T00:53:53;8.00;;;4.47;;
75993;SDS011;64680;53.800;9.988;2023-02-28T00:56:20;8.75;;;4.32;;
75993;SDS011;64680;53.800;9.988;2023-02-28T00:58:45;8.93;;;4.20;;
75993;SDS011;64680;53.800;9.988;2023-02-28T01:01:11;12.10;;;4.88;;
75993;SDS011;64680;53.800;9.988;2023-02-28T01:03:37;10.40;;;4.72;;
75993;SDS011;64680;53.800;9.988;2023-02-28T01:06:03;5.93;;;3.90;;
75993;SDS011;64680;53.800;9.988;2023-02-28T01:08:29;7.40;;;3.22;;
75993;SDS011;64680;53.800;9.988;2023-02-28T01:10:55;6.40;;;3.08;;
75993;SDS011;64680;53.800;9.988;2023-02-28T01:13:21;7.15;;;3.17;;
75993;SDS011;64680;53.800;9.988;2023-02-28T01:15:49;7.20;;;3.42;;
75993;SDS011;64680;53.800;9.988;2023-02-28T01:18:16;4.75;;;3.03;;
75993;SDS011;64680;53.800;9.988;2023-02-28T01:20:42;6.80;;;3.88;;
75993;SDS011;64680;53.800;9.988;2023-02-28T01:23:08;7.07;;;4.22;;
75993;SDS011;64680;53.800;9.988;2023-02-28T01:25:34;8.40;;;3.85;;
75993;SDS011;64680;53.800;9.988;2023-02-28T01:28:01;7.93;;;4.25;;
75993;SDS011;64680;53.800;9.988;2023-02-28T01:30:26;7.72;;;4.53;;
75993;SDS011;64680;53.800;9.988;2023-02-28T01:32:52;7.15;;;4.18;;
75993;SDS011;64680;53.800;9.988;2023-02-28T01:35:19;7.90;;;4.28;;
75993;SDS011;64680;53.800;9.988;2023-02-28T01:37:44;7.35;;;3.92;;
75993;SDS011;64680;53.800;9.988;2023-02-28T01:40:11;5.75;;;4.35;;
75993;SDS011;64680;53.800;9.988;2023-02-28T01:42:37;7.65;;;4.95;;
75993;SDS011;64680;53.800;9.988;2023-02-28T01:45:06;7.10;;;4.20;;
75993;SDS011;64680;53.800;9.988;2023-02-28T01:47:52;9.05;;;4.25;;
75993;SDS011;64680;53.800;9.988;2023-02-28T01:50:23;9.32;;;4.72;;
75993;SDS011;64680;53.800;9.988;2023-02-28T01:52:53;6.97;;;3.97;;
75993;SDS011;64680;53.800;9.988;2023-02-28T01:55:22;7.05;;;4.68;;
75993;SDS011;64680;53.800;9.988;2023-02-28T01:57:54;7.85;;;4.95;;
75993;SDS011;64680;53.800;9.988;2023-02-28T02:00:22;8.65;;;4.85;;
75993;SDS011;64680;53.800;9.988;2023-02-28T02:02:53;8.55;;;5.03;;
75993;SDS011;64680;53.800;9.988;2023-02-28T02:05:26;8.50;;;4.75;;
75993;SDS011;64680;53.800;9.988;2023-02-28T02:07:56;7.65;;;4.15;;
75993;SDS011;64680;53.800;9.988;2023-02-28T02:10:29;8.60;;;4.95;;
75993;SDS011;64680;53.800;9.988;2023-02-28T02:18:52;6.32;;;4.18;;
75993;SDS011;64680;53.800;9.988;2023-02-28T02:27:06;7.40;;;4.00;;
75993;SDS011;64680;53.800;9.988;2023-02-28T02:30:06;6.25;;;3.88;;
75993;SDS011;64680;53.800;9.988;2023-02-28T02:33:03;7.28;;;4.10;;
75993;SDS011;64680;53.800;9.988;2023-02-28T02:35:56;8.13;;;4.18;;
75993;SDS011;64680;53.800;9.988;2023-02-28T02:38:34;7.50;;;4.47;;
75993;SDS011;64680;53.800;9.988;2023-02-28T02:41:10;8.20;;;4.30;;
75993;SDS011;64680;53.800;9.988;2023-02-28T02:49:16;6.40;;;3.38;;
75993;SDS011;64680;53.800;9.988;2023-02-28T02:51:50;6.05;;;3.35;;
75993;SDS011;64680;53.800;9.988;2023-02-28T02:54:22;6.20;;;3.40;;
75993;SDS011;64680;53.800;9.988;2023-02-28T02:56:53;6.38;;;3.40;;
75993;SDS011;64680;53.800;9.988;2023-02-28T02:59:22;9.02;;;4.03;;
75993;SDS011;64680;53.800;9.988;2023-02-28T03:01:51;7.88;;;3.45;;
75993;SDS011;64680;53.800;9.988;2023-02-28T03:04:21;6.43;;;3.85;;
75993;SDS011;64680;53.800;9.988;2023-02-28T03:06:50;6.72;;;3.90;;
75993;SDS011;64680;53.800;9.988;2023-02-28T03:09:22;8.55;;;4.30;;
75993;SDS011;64680;53.800;9.988;2023-02-28T03:11:51;6.57;;;3.53;;
75993;SDS011;64680;53.800;9.988;2023-02-28T03:14:32;6.65;;;3.67;;
75993;SDS011;64680;53.800;9.988;2023-02-28T03:23:01;8.48;;;4.03;;
75993;SDS011;64680;53.800;9.988;2023-02-28T03:25:47;6.55;;;3.70;;
75993;SDS011;64680;53.800;9.988;2023-02-28T03:33:47;7.13;;;3.63;;
75993;SDS011;64680;53.800;9.988;2023-02-28T03:36:45;7.47;;;3.97;;
75993;SDS011;64680;53.800;9.988;2023-02-28T03:39:15;7.60;;;3.72;;
75993;SDS011;64680;53.800;9.988;2023-02-28T03:44:14;7.85;;;3.08;;
75993;SDS011;64680;53.800;9.988;2023-02-28T03:49:45;9.85;;;3.65;;
75993;SDS011;64680;53.800;9.988;2023-02-28T03:52:14;6.63;;;3.28;;
75993;SDS011;64680;53.800;9.988;2023-02-28T03:54:45;4.22;;;3.20;;
75993;SDS011;64680;53.800;9.988;2023-02-28T04:00:19;5.75;;;3.42;;
75993;SDS011;64680;53.800;9.988;2023-02-28T04:02:53;5.55;;;3.45;;
75993;SDS011;64680;53.800;9.988;2023-02-28T04:05:19;5.47;;;3.08;;
75993;SDS011;64680;53.800;9.988;2023-02-28T04:07:46;5.35;;;2.58;;
75993;SDS011;64680;53.800;9.988;2023-02-28T04:10:12;6.65;;;3.70;;
75993;SDS011;64680;53.800;9.988;2023-02-28T04:12:39;5.75;;;3.67;;
75993;SDS011;64680;53.800;9.988;2023-02-28T04:15:05;5.88;;;3.45;;
75993;SDS011;64680;53.800;9.988;2023-02-28T04:17:31;7.05;;;3.30;;
75993;SDS011;64680;53.800;9.988;2023-02-28T04:19:57;4.72;;;3.72;;
75993;SDS011;64680;53.800;9.988;2023-02-28T04:22:22;8.43;;;3.58;;
75993;SDS011;64680;53.800;9.988;2023-02-28T04:24:51;8.40;;;3.78;;
75993;SDS011;64680;53.800;9.988;2023-02-28T04:27:19;6.72;;;3.28;;
75993;SDS011;64680;53.800;9.988;2023-02-28T04:29:45;8.18;;;3.65;;
75993;SDS011;64680;53.800;9.988;2023-02-28T04:32:11;6.53;;;3.45;;
75993;SDS011;64680;53.800;9.988;2023-02-28T04:34:36;5.55;;;3.42;;
75993;SDS011;64680;53.800;9.988;2023-02-28T04:37:02;5.65;;;3.58;;
75993;SDS011;64680;53.800;9.988;2023-02-28T04:39:28;7.43;;;2.97;;
75993;SDS011;64680;53.800;9.988;2023-02-28T04:41:54;7.15;;;3.30;;
75993;SDS011;64680;53.800;9.988;2023-02-28T04:44:21;7.05;;;3.63;;
75993;SDS011;64680;53.800;9.988;2023-02-28T04:46:48;4.80;;;3.33;;
75993;SDS011;64680;53.800;9.988;2023-02-28T04:49:14;6.65;;;4.00;;
75993;SDS011;64680;53.800;9.988;2023-02-28T04:51:40;8.02;;;3.63;;
75993;SDS011;64680;53.800;9.988;2023-02-28T04:54:06;6.50;;;3.60;;
75993;SDS011;64680;53.800;9.988;2023-02-28T04:56:31;6.47;;;3.88;;
75993;SDS011;64680;53.800;9.988;2023-02-28T04:58:57;5.03;;;3.42;;
75993;SDS011;64680;53.800;9.988;2023-02-28T05:01:27;5.00;;;3.58;;
75993;SDS011;64680;53.800;9.988;2023-02-28T05:03:55;6.38;;;3.72;;
75993;SDS011;64680;53.800;9.988;2023-02-28T05:06:23;9.95;;;3.88;;
75993;SDS011;64680;53.800;9.988;2023-02-28T05:08:50;8.13;;;4.13;;
75993;SDS011;64680;53.800;9.988;2023-02-28T05:11:20;5.55;;;3.58;;
75993;SDS011;64680;53.800;9.988;2023-02-28T05:13:48;5.65;;;2.97;;
75993;SDS011;64680;53.800;9.988;2023-02-28T05:16:15;6.07;;;3.33;;
75993;SDS011;64680;53.800;9.988;2023-02-28T05:18:41;6.30;;;3.20;;
75993;SDS011;64680;53.800;9.988;2023-02-28T05:21:14;7.47;;;3.67;;
75993;SDS011;64680;53.800;9.988;2023-02-28T05:23:49;5.32;;;3.63;;
75993;SDS011;64680;53.800;9.988;2023-02-28T05:26:15;5.43;;;3.60;;
75993;SDS011;64680;53.800;9.988;2023-02-28T05:28:40;7.38;;;3.67;;
75993;SDS011;64680;53.800;9.988;2023-02-28T05:31:07;6.60;;;3.75;;
75993;SDS011;64680;53.800;9.988;2023-02-28T05:33:35;6.47;;;3.10;;
75993;SDS011;64680;53.800;9.988;2023-02-28T05:36:01;6.22;;;3.78;;
75993;SDS011;64680;53.800;9.988;2023-02-28T05:38:26;5.10;;;3.63;;
75993;SDS011;64680;53.800;9.988;2023-02-28T05:40:52;6.05;;;3.47;;
75993;SDS011;64680;53.800;9.988;2023-02-28T05:43:18;7.07;;;3.97;;
75993;SDS011;64680;53.800;9.988;2023-02-28T05:45:44;8.25;;;3.80;;
75993;SDS011;64680;53.800;9.988;2023-02-28T05:48:09;7.90;;;4.30;;
75993;SDS011;64680;53.800;9.988;2023-02-28T05:50:35;6.90;;;3.38;;
75993;SDS011;64680;53.800;9.988;2023-02-28T05:53:01;9.02;;;3.92;;
75993;SDS011;64680;53.800;9.988;2023-02-28T05:55:26;7.53;;;4.45;;
75993;SDS011;64680;53.800;9.988;2023-02-28T05:57:52;5.88;;;2.95;;
75993;SDS011;64680;53.800;9.988;2023-02-28T06:00:18;4.32;;;2.83;;
75993;SDS011;64680;53.800;9.988;2023-02-28T06:02:43;8.82;;;4.22;;
75993;SDS011;64680;53.800;9.988;2023-02-28T06:05:16;7.60;;;4.15;;
75993;SDS011;64680;53.800;9.988;2023-02-28T06:07:42;7.97;;;4.65;;
75993;SDS011;64680;53.800;9.988;2023-02-28T06:10:09;7.38;;;3.67;;
75993;SDS011;64680;53.800;9.988;2023-02-28T06:12:36;6.85;;;3.63;;
75993;SDS011;64680;53.800;9.988;2023-02-28T06:15:02;6.80;;;4.03;;
75993;SDS011;64680;53.800;9.988;2023-02-28T06:17:29;6.97;;;4.20;;
75993;SDS011;64680;53.800;9.988;2023-02-28T06:19:54;6.25;;;3.90;;
75993;SDS011;64680;53.800;9.988;2023-02-28T06:22:20;6.65;;;3.60;;
75993;SDS011;64680;53.800;9.988;2023-02-28T06:24:46;6.25;;;4.40;;
75993;SDS011;64680;53.800;9.988;2023-02-28T06:27:11;6.75;;;4.60;;
75993;SDS011;64680;53.800;9.988;2023-02-28T06:29:37;6.93;;;4.32;;
75993;SDS011;64680;53.800;9.988;2023-02-28T06:32:04;7.80;;;4.35;;
75993;SDS011;64680;53.800;9.988;2023-02-28T06:34:31;9.52;;;4.60;;
75993;SDS011;64680;53.800;9.988;2023-02-28T06:36:58;7.65;;;4.70;;
75993;SDS011;64680;53.800;9.988;2023-02-28T06:39:27;8.98;;;5.10;;
75993;SDS011;64680;53.800;9.988;2023-02-28T06:41:54;9.80;;;4.80;;
75993;SDS011;64680;53.800;9.988;2023-02-28T06:44:19;7.57;;;5.10;;
75993;SDS011;64680;53.800;9.988;2023-02-28T06:46:45;8.93;;;4.68;;
75993;SDS011;64680;53.800;9.988;2023-02-28T06:49:11;7.20;;;5.60;;
75993;SDS011;64680;53.800;9.988;2023-02-28T06:51:37;11.50;;;4.80;;
75993;SDS011;64680;53.800;9.988;2023-02-28T06:54:05;9.48;;;4.75;;
75993;SDS011;64680;53.800;9.988;2023-02-28T06:56:34;9.43;;;4.70;;
75993;SDS011;64680;53.800;9.988;2023-02-28T06:59:00;7.93;;;4.70;;
75993;SDS011;64680;53.800;9.988;2023-02-28T07:01:26;6.65;;;4.53;;
75993;SDS011;64680;53.800;9.988;2023-02-28T07:03:52;8.23;;;5.50;;
75993;SDS011;64680;53.800;9.988;2023-02-28T07:06:19;6.57;;;4.65;;
75993;SDS011;64680;53.800;9.988;2023-02-28T07:08:47;9.95;;;5.18;;
75993;SDS011;64680;53.800;9.988;2023-02-28T07:11:14;11.13;;;6.18;;
75993;SDS011;64680;53.800;9.988;2023-02-28T07:13:40;9.18;;;5.43;;
75993;SDS011;64680;53.800;9.988;2023-02-28T07:16:07;12.18;;;6.03;;
75993;SDS011;64680;53.800;9.988;2023-02-28T07:18:34;11.70;;;5.75;;
75993;SDS011;64680;53.800;9.988;2023-02-28T07:21:04;12.10;;;5.85;;
75993;SDS011;64680;53.800;9.988;2023-02-28T07:23:31;10.57;;;4.32;;
75993;SDS011;64680;53.800;9.988;2023-02-28T07:25:57;12.38;;;5.00;;
75993;SDS011;64680;53.800;9.988;2023-02-28T07:28:23;11.63;;;4.90;;
75993;SDS011;64680;53.800;9.988;2023-02-28T07:30:49;10.70;;;5.80;;
75993;SDS011;64680;53.800;9.988;2023-02-28T07:33:14;10.73;;;5.03;;
75993;SDS011;64680;53.800;9.988;2023-02-28T07:35:40;10.80;;;4.75;;
75993;SDS011;64680;53.800;9.988;2023-02-28T07:38:06;9.82;;;5.15;;
75993;SDS011;64680;53.800;9.988;2023-02-28T07:40:33;11.48;;;5.03;;
75993;SDS011;64680;53.800;9.988;2023-02-28T07:43:00;10.25;;;4.57;;
75993;SDS011;64680;53.800;9.988;2023-02-28T07:45:26;7.63;;;4.53;;
75993;SDS011;64680;53.800;9.988;2023-02-28T07:47:53;8.30;;;4.25;;
75993;SDS011;64680;53.800;9.988;2023-02-28T07:50:20;9.02;;;4.05;;
75993;SDS011;64680;53.800;9.988;2023-02-28T07:52:45;6.45;;;4.05;;
75993;SDS011;64680;53.800;9.988;2023-02-28T07:55:11;7.93;;;3.60;;
75993;SDS011;64680;53.800;9.988;2023-02-28T07:57:38;8.23;;;3.55;;
75993;SDS011;64680;53.800;9.988;2023-02-28T08:00:04;7.95;;;4.15;;
75993;SDS011;64680;53.800;9.988;2023-02-28T08:02:31;7.57;;;3.40;;
75993;SDS011;64680;53.800;9.988;2023-02-28T08:04:57;5.72;;;3.55;;
75993;SDS011;64680;53.800;9.988;2023-02-28T08:07:22;7.75;;;3.95;;
75993;SDS011;64680;53.800;9.988;2023-02-28T08:09:48;7.90;;;3.45;;
75993;SDS011;64680;53.800;9.988;2023-02-28T08:12:13;4.93;;;3.28;;
75993;SDS011;64680;53.800;9.988;2023-02-28T08:14:39;5.10;;;2.80;;
75993;SDS011;64680;53.800;9.988;2023-02-28T08:17:05;4.68;;;2.35;;
75993;SDS011;64680;53.800;9.988;2023-02-28T08:19:31;5.65;;;2.00;;
75993;SDS011;64680;53.800;9.988;2023-02-28T08:21:57;6.53;;;3.17;;
75993;SDS011;64680;53.800;9.988;2023-02-28T08:24:23;5.18;;;2.60;;
75993;SDS011;64680;53.800;9.988;2023-02-28T08:26:49;4.45;;;2.35;;
75993;SDS011;64680;53.800;9.988;2023-02-28T08:29:14;7.40;;;2.75;;
75993;SDS011;64680;53.800;9.988;2023-02-28T08:31:41;4.55;;;2.53;;
75993;SDS011;64680;53.800;9.988;2023-02-28T08:34:11;4.28;;;2.30;;
75993;SDS011;64680;53.800;9.988;2023-02-28T08:36:39;4.30;;;2.40;;
75993;SDS011;64680;53.800;9.988;2023-02-28T08:39:04;4.47;;;2.28;;
75993;SDS011;64680;53.800;9.988;2023-02-28T08:41:31;4.15;;;2.00;;
75993;SDS011;64680;53.800;9.988;2023-02-28T08:43:56;4.18;;;2.38;;
75993;SDS011;64680;53.800;9.988;2023-02-28T08:46:22;5.82;;;2.85;;
75993;SDS011;64680;53.800;9.988;2023-02-28T08:48:51;5.82;;;2.60;;
75993;SDS011;64680;53.800;9.988;2023-02-28T08:51:18;5.53;;;2.28;;
75993;SDS011;64680;53.800;9.988;2023-02-28T08:53:51;3.40;;;2.75;;
75993;SDS011;64680;53.800;9.988;2023-02-28T08:56:17;4.68;;;2.50;;
75993;SDS011;64680;53.800;9.988;2023-02-28T08:58:44;5.43;;;2.75;;
75993;SDS011;64680;53.800;9.988;2023-02-28T09:01:20;5.55;;;2.53;;
75993;SDS011;64680;53.800;9.988;2023-02-28T09:03:49;7.50;;;2.42;;
75993;SDS011;64680;53.800;9.988;2023-02-28T09:06:16;5.00;;;2.25;;
75993;SDS011;64680;53.800;9.988;2023-02-28T09:08:42;6.80;;;2.22;;
75993;SDS011;64680;53.800;9.988;2023-02-28T09:11:09;6.18;;;3.47;;
75993;SDS011;64680;53.800;9.988;2023-02-28T09:13:34;8.43;;;3.13;;
75993;SDS011;64680;53.800;9.988;2023-02-28T09:16:01;7.10;;;3.95;;
75993;SDS011;64680;53.800;9.988;2023-02-28T09:18:28;5.75;;;2.75;;
75993;SDS011;64680;53.800;9.988;2023-02-28T09:20:54;4.55;;;2.53;;
75993;SDS011;64680;53.800;9.988;2023-02-28T09:23:20;3.85;;;1.95;;
75993;SDS011;64680;53.800;9.988;2023-02-28T09:25:47;4.68;;;2.25;;
75993;SDS011;64680;53.800;9.988;2023-02-28T09:28:14;4.47;;;2.35;;
75993;SDS011;64680;53.800;9.988;2023-02-28T09:30:41;2.78;;;1.67;;
75993;SDS011;64680;53.800;9.988;2023-02-28T09:33:07;3.70;;;2.25;;
75993;SDS011;64680;53.800;9.988;2023-02-28T09:35:33;4.70;;;1.55;;
75993;SDS011;64680;53.800;9.988;2023-02-28T09:37:58;5.15;;;2.08;;
75993;SDS011;64680;53.800;9.988;2023-02-28T09:40:24;6.80;;;3.63;;
75993;SDS011;64680;53.800;9.988;2023-02-28T09:42:52;3.95;;;2.33;;
75993;SDS011;64680;53.800;9.988;2023-02-28T09:48:01;2.78;;;1.40;;
75993;SDS011;64680;53.800;9.988;2023-02-28T09:50:35;4.00;;;2.17;;
75993;SDS011;64680;53.800;9.988;2023-02-28T09:53:11;3.80;;;1.10;;
75993;SDS011;64680;53.800;9.988;2023-02-28T09:55:47;3.67;;;2.00;;
75993;SDS011;64680;53.800;9.988;2023-02-28T09:58:30;3.47;;;2.10;;
75993;SDS011;64680;53.800;9.988;2023-02-28T10:01:21;3.28;;;1.60;;
75993;SDS011;64680;53.800;9.988;2023-02-28T10:04:03;2.72;;;1.98;;
75993;SDS011;64680;53.800;9.988;2023-02-28T10:06:38;3.10;;;1.30;;
75993;SDS011;64680;53.800;9.988;2023-02-28T10:09:16;2.92;;;1.63;;
75993;SDS011;64680;53.800;9.988;2023-02-28T10:11:47;2.85;;;1.60;;
75993;SDS011;64680;53.800;9.988;2023-02-28T10:14:21;3.22;;;1.50;;
75993;SDS011;64680;53.800;9.988;2023-02-28T10:16:53;4.22;;;2.05;;
75993;SDS011;64680;53.800;9.988;2023-02-28T10:19:23;3.25;;;1.77;;
75993;SDS011;64680;53.800;9.988;2023-02-28T10:22:00;2.28;;;0.85;;
75993;SDS011;64680;53.800;9.988;2023-02-28T10:27:06;2.95;;;1.35;;
75993;SDS011;64680;53.800;9.988;2023-02-28T10:29:40;3.00;;;1.75;;
75993;SDS011;64680;53.800;9.988;2023-02-28T10:32:08;3.25;;;1.50;;
75993;SDS011;64680;53.800;9.988;2023-02-28T10:34:38;4.10;;;1.88;;
75993;SDS011;64680;53.800;9.988;2023-02-28T10:37:03;1.90;;;1.40;;
75993;SDS011;64680;53.800;9.988;2023-02-28T10:39:36;2.05;;;1.48;;
75993;SDS011;64680;53.800;9.988;2023-02-28T10:42:29;2.33;;;1.50;;
75993;SDS011;64680;53.800;9.988;2023-02-28T10:50:31;2.92;;;1.58;;
75993;SDS011;64680;53.800;9.988;2023-02-28T10:56:02;3.53;;;1.23;;
75993;SDS011;64680;53.800;9.988;2023-02-28T10:58:54;2.22;;;1.40;;
75993;SDS011;64680;53.800;9.988;2023-02-28T11:03:48;1.77;;;1.30;;
75993;SDS011;64680;53.800;9.988;2023-02-28T11:06:16;3.35;;;2.03;;
75993;SDS011;64680;53.800;9.988;2023-02-28T11:08:54;3.00;;;1.10;;
75993;SDS011;64680;53.800;9.988;2023-02-28T11:11:24;3.55;;;1.92;;
75993;SDS011;64680;53.800;9.988;2023-02-28T11:13:53;3.95;;;2.03;;
75993;SDS011;64680;53.800;9.988;2023-02-28T11:16:35;3.88;;;1.80;;
75993;SDS011;64680;53.800;9.988;2023-02-28T11:19:03;2.40;;;1.58;;
75993;SDS011;64680;53.800;9.988;2023-02-28T11:21:31;3.05;;;1.58;;
75993;SDS011;64680;53.800;9.988;2023-02-28T11:24:22;3.22;;;1.63;;
75993;SDS011;64680;53.800;9.988;2023-02-28T11:26:48;2.05;;;1.50;;
75993;SDS011;64680;53.800;9.988;2023-02-28T11:32:33;2.95;;;1.50;;
75993;SDS011;64680;53.800;9.988;2023-02-28T11:34:39;3.45;;;1.65;;
75993;SDS011;64680;53.800;9.988;2023-02-28T11:37:09;3.50;;;1.23;;
75993;SDS011;64680;53.800;9.988;2023-02-28T11:39:45;3.20;;;1.42;;
75993;SDS011;64680;53.800;9.988;2023-02-28T11:42:16;4.20;;;2.00;;
75993;SDS011;64680;53.800;9.988;2023-02-28T11:48:01;3.53;;;1.52;;
75993;SDS011;64680;53.800;9.988;2023-02-28T12:01:50;4.28;;;1.50;;
75993;SDS011;64680;53.800;9.988;2023-02-28T12:10:06;2.20;;;1.60;;
75993;SDS011;64680;53.800;9.988;2023-02-28T12:26:44;1.70;;;1.60;;
75993;SDS011;64680;53.800;9.988;2023-02-28T12:29:25;2.83;;;1.80;;
75993;SDS011;64680;53.800;9.988;2023-02-28T12:31:58;4.25;;;1.63;;
75993;SDS011;64680;53.800;9.988;2023-02-28T12:34:33;2.92;;;1.55;;
75993;SDS011;64680;53.800;9.988;2023-02-28T12:39:42;1.95;;;0.70;;
75993;SDS011;64680;53.800;9.988;2023-02-28T12:42:13;2.55;;;1.10;;
75993;SDS011;64680;53.800;9.988;2023-02-28T12:47:46;1.27;;;0.80;;
75993;SDS011;64680;53.800;9.988;2023-02-28T12:50:18;1.65;;;1.10;;
75993;SDS011;64680;53.800;9.988;2023-02-28T13:04:03;1.50;;;0.77;;
75993;SDS011;64680;53.800;9.988;2023-02-28T13:06:43;2.08;;;1.10;;
75993;SDS011;64680;53.800;9.988;2023-02-28T13:09:17;2.75;;;1.13;;
75993;SDS011;64680;53.800;9.988;2023-02-28T13:11:50;1.55;;;1.02;;
75993;SDS011;64680;53.800;9.988;2023-02-28T13:19:29;1.95;;;1.25;;
75993;SDS011;64680;53.800;9.988;2023-02-28T13:21:57;3.17;;;1.58;;
75993;SDS011;64680;53.800;9.988;2023-02-28T13:24:38;1.70;;;1.30;;
75993;SDS011;64680;53.800;9.988;2023-02-28T13:33:30;2.15;;;1.30;;
75993;SDS011;64680;53.800;9.988;2023-02-28T13:46:34;2.85;;;1.90;;
75993;SDS011;64680;53.800;9.988;2023-02-28T13:49:31;3.38;;;1.75;;
75993;SDS011;64680;53.800;9.988;2023-02-28T14:08:53;3.15;;;2.15;;
75993;SDS011;64680;53.800;9.988;2023-02-28T14:11:24;3.08;;;2.30;;
75993;SDS011;64680;53.800;9.988;2023-02-28T14:14:01;3.88;;;1.90;;
75993;SDS011;64680;53.800;9.988;2023-02-28T14:16:35;2.05;;;1.70;;
75993;SDS011;64680;53.800;9.988;2023-02-28T14:19:13;3.00;;;1.83;;
75993;SDS011;64680;53.800;9.988;2023-02-28T14:30:17;2.20;;;1.92;;
75993;SDS011;64680;53.800;9.988;2023-02-28T14:36:08;2.47;;;1.83;;
75993;SDS011;64680;53.800;9.988;2023-02-28T14:38:57;2.90;;;1.80;;
75993;SDS011;64680;53.800;9.988;2023-02-28T14:41:36;2.08;;;1.35;;
75993;SDS011;64680;53.800;9.988;2023-02-28T14:44:37;3.83;;;2.28;;
75993;SDS011;64680;53.800;9.988;2023-02-28T14:47:00;3.85;;;2.58;;
75993;SDS011;64680;53.800;9.988;2023-02-28T14:49:37;4.10;;;1.67;;
75993;SDS011;64680;53.800;9.988;2023-02-28T14:52:15;3.03;;;1.90;;
75993;SDS011;64680;53.800;9.988;2023-02-28T14:54:44;2.55;;;1.80;;
75993;SDS011;64680;53.800;9.988;2023-02-28T14:57:21;2.42;;;1.60;;
75993;SDS011;64680;53.800;9.988;2023-02-28T14:59:59;3.95;;;2.33;;
75993;SDS011;64680;53.800;9.988;2023-02-28T15:02:36;3.92;;;1.98;;
75993;SDS011;64680;53.800;9.988;2023-02-28T15:07:37;3.05;;;1.50;;
75993;SDS011;64680;53.800;9.988;2023-02-28T15:10:10;3.08;;;1.80;;
75993;SDS011;64680;53.800;9.988;2023-02-28T15:12:40;2.25;;;1.75;;
75993;SDS011;64680;53.800;9.988;2023-02-28T15:15:17;1.98;;;1.75;;
75993;SDS011;64680;53.800;9.988;2023-02-28T15:20:14;2.63;;;1.98;;
75993;SDS011;64680;53.800;9.988;2023-02-28T15:22:41;3.15;;;2.10;;
75993;SDS011;64680;53.800;9.988;2023-02-28T15:25:09;2.90;;;1.88;;
75993;SDS011;64680;53.800;9.988;2023-02-28T15:27:42;2.70;;;1.60;;
75993;SDS011;64680;53.800;9.988;2023-02-28T15:30:24;2.47;;;1.88;;
75993;SDS011;64680;53.800;9.988;2023-02-28T15:35:34;2.95;;;1.50;;
75993;SDS011;64680;53.800;9.988;2023-02-28T15:38:03;3.58;;;2.20;;
75993;SDS011;64680;53.800;9.988;2023-02-28T15:40:51;3.45;;;1.98;;
75993;SDS011;64680;53.800;9.988;2023-02-28T15:46:01;3.15;;;1.98;;
75993;SDS011;64680;53.800;9.988;2023-02-28T15:53:40;6.03;;;2.70;;
75993;SDS011;64680;53.800;9.988;2023-02-28T15:56:26;2.42;;;1.83;;
75993;SDS011;64680;53.800;9.988;2023-02-28T15:58:58;3.53;;;2.00;;
75993;SDS011;64680;53.800;9.988;2023-02-28T16:01:30;2.38;;;2.00;;
75993;SDS011;64680;53.800;9.988;2023-02-28T16:03:59;3.97;;;2.88;;
75993;SDS011;64680;53.800;9.988;2023-02-28T16:08:59;10.63;;;4.47;;
75993;SDS011;64680;53.800;9.988;2023-02-28T16:11:25;7.47;;;3.95;;
75993;SDS011;64680;53.800;9.988;2023-02-28T16:13:51;7.10;;;4.20;;
75993;SDS011;64680;53.800;9.988;2023-02-28T16:16:18;5.53;;;3.38;;
75993;SDS011;64680;53.800;9.988;2023-02-28T16:18:49;5.50;;;2.85;;
75993;SDS011;64680;53.800;9.988;2023-02-28T16:21:15;5.05;;;2.25;;
75993;SDS011;64680;53.800;9.988;2023-02-28T16:23:41;4.05;;;2.53;;
75993;SDS011;64680;53.800;9.988;2023-02-28T16:26:07;3.67;;;2.10;;
75993;SDS011;64680;53.800;9.988;2023-02-28T16:28:35;4.97;;;2.33;;
75993;SDS011;64680;53.800;9.988;2023-02-28T16:31:04;4.18;;;2.60;;
75993;SDS011;64680;53.800;9.988;2023-02-28T16:33:32;3.55;;;2.33;;
75993;SDS011;64680;53.800;9.988;2023-02-28T16:35:58;2.88;;;2.08;;
75993;SDS011;64680;53.800;9.988;2023-02-28T16:38:24;3.65;;;2.30;;
75993;SDS011;64680;53.800;9.988;2023-02-28T16:40:51;3.15;;;1.85;;
75993;SDS011;64680;53.800;9.988;2023-02-28T16:43:22;5.13;;;2.30;;
75993;SDS011;64680;53.800;9.988;2023-02-28T16:45:54;3.13;;;1.73;;
75993;SDS011;64680;53.800;9.988;2023-02-28T16:48:23;3.38;;;1.88;;
75993;SDS011;64680;53.800;9.988;2023-02-28T16:50:49;2.95;;;1.92;;
75993;SDS011;64680;53.800;9.988;2023-02-28T16:53:15;3.30;;;1.95;;
75993;SDS011;64680;53.800;9.988;2023-02-28T16:55:40;3.55;;;2.17;;
75993;SDS011;64680;53.800;9.988;2023-02-28T16:58:06;2.88;;;2.40;;
75993;SDS011;64680;53.800;9.988;2023-02-28T17:00:36;2.83;;;1.98;;
75993;SDS011;64680;53.800;9.988;2023-02-28T17:03:02;5.13;;;2.25;;
75993;SDS011;64680;53.800;9.988;2023-02-28T17:05:28;5.05;;;2.45;;
75993;SDS011;64680;53.800;9.988;2023-02-28T17:08:02;3.08;;;2.22;;
75993;SDS011;64680;53.800;9.988;2023-02-28T17:10:28;3.75;;;1.90;;
75993;SDS011;64680;53.800;9.988;2023-02-28T17:12:54;4.40;;;1.50;;
75993;SDS011;64680;53.800;9.988;2023-02-28T17:15:19;3.17;;;2.03;;
75993;SDS011;64680;53.800;9.988;2023-02-28T17:17:46;2.88;;;1.90;;
75993;SDS011;64680;53.800;9.988;2023-02-28T17:20:15;3.45;;;2.17;;
75993;SDS011;64680;53.800;9.988;2023-02-28T17:22:42;3.33;;;2.30;;
75993;SDS011;64680;53.800;9.988;2023-02-28T17:25:08;2.75;;;1.70;;
75993;SDS011;64680;53.800;9.988;2023-02-28T17:27:35;2.55;;;1.85;;
75993;SDS011;64680;53.800;9.988;2023-02-28T17:30:03;2.92;;;1.92;;
75993;SDS011;64680;53.800;9.988;2023-02-28T17:32:38;3.80;;;2.05;;
75993;SDS011;64680;53.800;9.988;2023-02-28T17:35:04;3.42;;;2.15;;
75993;SDS011;64680;53.800;9.988;2023-02-28T17:37:30;3.40;;;1.67;;
75993;SDS011;64680;53.800;9.988;2023-02-28T17:39:56;2.65;;;1.88;;
75993;SDS011;64680;53.800;9.988;2023-02-28T17:42:21;3.38;;;2.20;;
75993;SDS011;64680;53.800;9.988;2023-02-28T17:44:47;4.38;;;1.90;;
75993;SDS011;64680;53.800;9.988;2023-02-28T17:47:13;3.42;;;1.98;;
75993;SDS011;64680;53.800;9.988;2023-02-28T17:49:38;4.15;;;2.28;;
75993;SDS011;64680;53.800;9.988;2023-02-28T17:52:04;3.53;;;2.30;;
75993;SDS011;64680;53.800;9.988;2023-02-28T17:54:30;4.38;;;2.13;;
75993;SDS011;64680;53.800;9.988;2023-02-28T17:56:57;9.10;;;2.40;;